Time;durP1;ratioP1;P1;durP2;ratioP2;P2;SDS_P1;SDS_P2;PMS_P1;PMS_P2;Temp;Humidity;BMP_temperature;BMP_pressure;BME280_temperature;BME280_humidity;BME280_pressure;Samples;Min_cycle;Max_cycle;Signal;HPM_P1;HPM_P2
2022/10/08 00:01:33;;;;;;;23.83;5.10;;;;;;;12.93;80.28;101201.22;6165644;23;20008;-73
2022/10/08 00:03:59;;;;;;;23.13;4.80;;;;;;;12.87;80.90;101196.47;6165918;23;20012;-74
2022/10/08 00:06:29;;;;;;;24.70;4.82;;;;;;;12.91;80.43;101186.94;6190900;23;20012;-73
2022/10/08 00:08:58;;;;;;;21.45;4.38;;;;;;;12.90;80.50;101186.09;6165834;23;20009;-73
2022/10/08 00:11:26;;;;;;;20.95;4.40;;;;;;;12.91;79.80;101186.94;6165859;23;20001;-73
2022/10/08 00:13:53;;;;;;;23.48;4.53;;;;;;;12.96;79.98;101184.56;6165856;23;20012;-73
2022/10/08 00:16:39;;;;;;;19.02;3.95;;;;;;;13.11;79.14;101177.50;6165447;23;20055;-73
2022/10/08 00:19:12;;;;;;;28.88;4.40;;;;;;;13.16;78.42;101185.13;6165563;23;20007;-73
2022/10/08 00:21:39;;;;;;;24.05;3.67;;;;;;;13.10;78.92;101170.31;6166061;23;20009;-73
2022/10/08 00:24:06;;;;;;;21.73;3.90;;;;;;;13.21;78.62;101167.31;6165485;23;19997;-74
2022/10/08 00:26:34;;;;;;;30.20;5.00;;;;;;;13.28;77.87;101168.34;6165442;23;20004;-73
2022/10/08 00:29:02;;;;;;;25.95;4.53;;;;;;;13.08;78.51;101156.06;6165939;23;20009;-73
2022/10/08 00:31:34;;;;;;;20.40;3.63;;;;;;;13.18;78.33;101167.66;6165646;23;20009;-73
2022/10/08 00:34:00;;;;;;;;;;;;;;;13.23;77.82;101151.69;6166068;23;20008;-73
2022/10/08 00:36:30;;;;;;;18.50;3.70;;;;;;;13.29;77.80;101164.59;6165884;23;19908;-73
2022/10/08 00:38:57;;;;;;;25.20;4.90;;;;;;;13.27;77.70;101153.06;6165617;23;20080;-73
2022/10/08 00:41:25;;;;;;;22.13;4.35;;;;;;;13.23;77.66;101148.97;6167246;23;20001;-73
2022/10/08 00:43:53;;;;;;;33.58;4.82;;;;;;;13.15;78.26;101151.66;6167412;23;20007;-73
2022/10/08 00:46:25;;;;;;;30.95;4.63;;;;;;;13.15;78.07;101157.09;6167594;23;20001;-74
2022/10/08 00:48:54;;;;;;;;;;;;;;;13.17;78.08;101138.75;6168178;23;20012;-73
2022/10/08 00:51:20;;;;;;;25.05;4.82;;;;;;;13.19;78.26;101136.72;6167436;23;19904;-73
2022/10/08 00:53:46;;;;;;;20.85;4.32;;;;;;;13.32;77.87;101146.28;6167671;23;20053;-73
2022/10/08 00:56:12;;;;;;;24.27;4.25;;;;;;;13.20;78.08;101137.56;6167072;23;20013;-73
2022/10/08 00:58:40;;;;;;;30.88;5.07;;;;;;;13.24;78.18;101142.53;6166911;23;20075;-73
2022/10/08 01:01:05;;;;;;;18.52;3.75;;;;;;;13.22;78.15;101140.97;6193921;23;20005;-74
2022/10/08 01:03:31;;;;;;;19.85;3.95;;;;;;;13.25;78.18;101125.19;6192506;23;20012;-75
2022/10/08 01:06:11;;;;;;;29.15;4.70;;;;;;;13.30;78.01;101122.81;6191886;23;20013;-73
2022/10/08 01:08:40;;;;;;;24.92;4.18;;;;;;;13.25;78.26;101119.75;6167457;23;20001;-73
2022/10/08 01:11:27;;;;;;;25.45;5.05;;;;;;;13.08;78.77;101118.00;6192201;23;20039;-74
2022/10/08 01:14:06;;;;;;;22.63;5.35;;;;;;;12.95;79.29;101112.22;6192005;23;20015;-74
2022/10/08 01:17:03;;;;;;;29.80;4.68;;;;;;;12.95;79.19;101107.63;6167659;23;20009;-73
2022/10/08 01:19:50;;;;;;;21.42;4.53;;;;;;;12.99;79.20;101113.59;6149964;23;20008;-73
2022/10/08 01:22:21;;;;;;;37.70;5.60;;;;;;;13.01;79.19;101111.53;6192234;23;20008;-74
2022/10/08 01:28:00;;;;;;;22.67;3.95;;;;;;;12.89;79.41;101108.28;6193789;23;19997;-73
2022/10/08 01:30:26;;;;;;;30.83;4.60;;;;;;;12.86;79.84;101091.50;6167494;23;20005;-73
2022/10/08 01:32:58;;;;;;;24.88;4.85;;;;;;;12.85;80.08;101095.22;6193804;23;20001;-73
2022/10/08 01:35:30;;;;;;;25.80;4.20;;;;;;;12.67;80.82;101088.06;6167120;23;20088;-73
2022/10/08 01:38:01;;;;;;;22.50;3.95;;;;;;;12.31;82.37;101090.16;6167097;23;19997;-73
2022/10/08 01:40:32;;;;;;;28.88;4.18;;;;;;;12.12;82.86;101090.41;6166720;23;20032;-73
2022/10/08 01:43:00;;;;;;;20.83;4.40;;;;;;;11.95;83.89;101086.78;6167533;23;20004;-73
2022/10/08 01:45:34;;;;;;;30.15;4.70;;;;;;;11.88;84.43;101083.03;6167192;23;20000;-73
2022/10/08 01:48:04;;;;;;;31.27;5.40;;;;;;;11.82;84.35;101086.38;6167564;23;20008;-73
2022/10/08 01:50:43;;;;;;;31.75;4.60;;;;;;;11.84;84.94;101089.78;6166429;23;20059;-73
2022/10/08 01:53:13;;;;;;;23.70;4.75;;;;;;;11.73;84.90;101081.88;6166465;23;20001;-72
2022/10/08 01:55:42;;;;;;;26.77;4.88;;;;;;;11.78;84.91;101079.53;6166721;23;20001;-73
2022/10/08 01:58:17;;;;;;;30.42;4.63;;;;;;;11.77;85.33;101077.84;6166320;23;20028;-73
2022/10/08 02:00:47;;;;;;;28.77;4.75;;;;;;;11.70;85.57;101072.19;6166484;23;20394;-73
2022/10/08 02:03:12;;;;;;;23.23;5.32;;;;;;;11.68;85.45;101069.66;6167099;23;20008;-72
2022/10/08 02:05:47;;;;;;;24.65;4.80;;;;;;;11.60;86.15;101077.72;6166927;23;19993;-73
2022/10/08 02:08:13;;;;;;;30.52;4.88;;;;;;;11.45;86.99;101078.47;6166386;23;20099;-72
2022/10/08 02:10:39;;;;;;;21.20;3.80;;;;;;;11.32;87.41;101074.31;6191855;23;20001;-71
2022/10/08 02:13:05;;;;;;;26.42;4.30;;;;;;;11.09;88.75;101074.00;6167574;23;20011;-71
2022/10/08 02:18:39;;;;;;;37.42;5.18;;;;;;;11.03;89.18;101074.63;6122375;23;20025;-71
2022/10/08 02:21:21;;;;;;;28.90;4.18;;;;;;;11.18;88.09;101076.75;6109314;23;19998;-71
2022/10/08 02:23:59;;;;;;;30.83;4.45;;;;;;;11.05;89.03;101078.00;6135863;23;20002;-71
2022/10/08 02:26:33;;;;;;;28.00;5.72;;;;;;;11.34;87.61;101082.28;6134971;23;20048;-70
2022/10/08 02:29:12;;;;;;;32.92;5.65;;;;;;;11.37;87.87;101081.97;6110083;23;20006;-70
2022/10/08 02:31:51;;;;;;;22.83;4.50;;;;;;;11.44;87.31;101083.06;6135536;23;20004;-70
2022/10/08 02:34:31;;;;;;;26.98;5.18;;;;;;;11.64;86.63;101081.81;6109254;23;20002;-70
2022/10/08 02:37:00;;;;;;;32.58;6.45;;;;;;;11.64;86.99;101073.69;6109784;23;20021;-70
2022/10/08 02:39:28;;;;;;;28.05;5.65;;;;;;;11.73;86.66;101068.31;6109456;23;20004;-70
2022/10/08 02:41:58;;;;;;;27.88;4.82;;;;;;;11.92;85.96;101087.09;6134968;23;19998;-71
2022/10/08 02:44:34;;;;;;;26.58;4.10;;;;;;;12.13;84.96;101074.00;6135094;23;20089;-70
2022/10/08 02:47:05;;;;;;;22.65;4.35;;;;;;;12.22;84.75;101086.56;6135337;23;20086;-70
2022/10/08 02:49:36;;;;;;;21.70;4.32;;;;;;;12.28;84.32;101071.50;6135093;23;20009;-70
2022/10/08 02:52:04;;;;;;;20.45;4.25;;;;;;;12.59;83.27;101079.91;6134529;23;20010;-70
2022/10/08 02:54:36;;;;;;;22.92;4.82;;;;;;;12.45;83.89;101072.38;6108735;23;20006;-71
2022/10/08 02:57:28;;;;;;;21.55;5.05;;;;;;;12.36;84.04;101073.38;6108555;23;20013;-71
2022/10/08 02:59:54;;;;;;;23.42;4.85;;;;;;;12.28;84.45;101073.34;6108745;23;20010;-70
2022/10/08 03:02:42;;;;;;;21.27;4.63;;;;;;;12.43;84.60;101068.97;6134629;23;20006;-70
2022/10/08 03:05:15;;;;;;;27.08;4.72;;;;;;;12.53;83.93;101072.41;6134519;23;20010;-71
2022/10/08 03:07:42;;;;;;;22.95;4.22;;;;;;;12.53;84.03;101080.56;6134244;23;20052;-70
2022/10/08 03:10:08;;;;;;;32.75;4.75;;;;;;;12.43;84.17;101074.41;6107814;23;20065;-70
2022/10/08 03:12:33;;;;;;;28.15;4.97;;;;;;;12.41;84.39;101071.03;6109047;23;20037;-70
2022/10/08 03:15:00;;;;;;;27.63;5.22;;;;;;;12.39;84.67;101097.50;6108934;23;19998;-71
2022/10/08 03:17:31;;;;;;;20.13;5.00;;;;;;;12.45;84.57;101077.81;6153097;23;20005;-71
2022/10/08 03:20:00;;;;;;;24.38;5.25;;;;;;;12.68;83.74;101081.59;6163456;23;19998;-71
2022/10/08 03:22:26;;;;;;;28.52;4.72;;;;;;;12.51;83.93;101082.56;6137990;23;20088;-71
2022/10/08 03:24:51;;;;;;;32.83;5.30;;;;;;;12.58;84.28;101072.75;6163702;23;20088;-70
2022/10/08 03:27:17;;;;;;;40.03;5.22;;;;;;;12.49;84.44;101080.03;6164093;23;20056;-71
2022/10/08 03:29:42;;;;;;;35.28;5.20;;;;;;;12.42;85.02;101094.44;6138213;23;19998;-70
2022/10/08 03:32:08;;;;;;;30.40;5.60;;;;;;;12.44;84.71;101093.25;6164224;23;20006;-70
2022/10/08 03:34:33;;;;;;;26.58;5.40;;;;;;;12.25;85.81;101087.25;6163966;23;20005;-69
2022/10/08 03:36:58;;;;;;;28.77;5.35;;;;;;;12.37;85.73;101075.06;6137993;23;20020;-70
2022/10/08 03:39:24;;;;;;;22.58;4.53;;;;;;;12.40;85.18;101080.19;6163352;23;20001;-70
2022/10/08 03:41:49;;;;;;;35.33;6.22;;;;;;;12.34;85.70;101078.13;6137689;23;19998;-70
2022/10/08 03:44:14;;;;;;;24.23;4.82;;;;;;;12.44;85.42;101081.53;6137605;23;20076;-70
2022/10/08 03:46:40;;;;;;;24.88;4.85;;;;;;;12.36;85.56;101078.81;6138002;23;20006;-70
2022/10/08 03:49:05;;;;;;;21.85;4.57;;;;;;;12.57;85.09;101086.50;6137439;23;20007;-70
2022/10/08 03:51:31;;;;;;;31.15;5.43;;;;;;;12.56;84.88;101080.22;6163602;23;20005;-70
2022/10/08 03:53:58;;;;;;;22.50;4.93;;;;;;;12.44;85.45;101070.66;6138022;23;20056;-70
2022/10/08 03:56:23;;;;;;;26.88;4.70;;;;;;;12.38;86.19;101068.63;6137171;23;20001;-70
2022/10/08 03:58:58;;;;;;;28.80;5.35;;;;;;;12.49;85.61;101084.63;6137739;23;20093;-70
2022/10/08 04:01:25;;;;;;;30.88;5.00;;;;;;;12.39;86.20;101078.50;6137788;23;20002;-70
2022/10/08 04:03:51;;;;;;;28.13;4.80;;;;;;;12.26;86.45;101099.78;6138005;23;20072;-70
2022/10/08 04:06:17;;;;;;;29.25;6.03;;;;;;;12.34;86.77;101075.41;6163306;23;20001;-71
2022/10/08 04:08:43;;;;;;;17.33;4.20;;;;;;;12.48;86.35;101072.06;6137195;23;20009;-71
2022/10/08 04:11:11;;;;;;;24.08;5.30;;;;;;;12.42;86.07;101064.56;6137471;23;20462;-70
2022/10/08 04:13:37;;;;;;;21.58;4.93;;;;;;;12.33;86.81;101073.72;6137687;23;20005;-71
2022/10/08 04:16:11;;;;;;;27.25;4.53;;;;;;;12.31;87.03;101075.72;6138521;23;20005;-70
2022/10/08 04:18:37;;;;;;;31.75;5.57;;;;;;;12.20;87.91;101077.75;6165556;23;20065;-70
2022/10/08 04:21:14;;;;;;;30.58;5.32;;;;;;;12.13;88.05;101079.41;6139463;23;20062;-71
2022/10/08 04:23:41;;;;;;;26.63;5.22;;;;;;;12.34;87.50;101075.41;6166146;23;19997;-70
2022/10/08 04:26:08;;;;;;;22.67;5.35;;;;;;;12.28;87.39;101086.94;6139431;23;19994;-69
2022/10/08 04:28:35;;;;;;;23.13;5.65;;;;;;;12.29;87.12;101094.06;6165799;23;19997;-71
2022/10/08 04:31:05;;;;;;;37.22;5.05;;;;;;;12.34;87.23;101080.84;6165611;23;20057;-70
2022/10/08 04:33:32;;;;;;;30.25;5.13;;;;;;;12.40;86.95;101080.19;6139703;23;20009;-70
2022/10/08 04:35:58;;;;;;;33.70;6.03;;;;;;;12.43;87.21;101085.28;6139057;23;20031;-70
2022/10/08 04:38:24;;;;;;;25.33;4.35;;;;;;;12.45;87.08;101083.22;6139309;23;20001;-70
2022/10/08 04:41:07;;;;;;;25.85;5.43;;;;;;;12.51;86.82;101074.41;6139704;23;19997;-70
2022/10/08 04:43:33;;;;;;;23.30;4.93;;;;;;;12.17;88.18;101075.34;6139463;23;20420;-70
2022/10/08 04:45:59;;;;;;;25.85;5.68;;;;;;;12.17;88.51;101069.91;6138877;23;19993;-70
2022/10/08 04:48:24;;;;;;;21.55;4.45;;;;;;;12.26;87.79;101083.50;6165094;23;20009;-70
2022/10/08 04:51:01;;;;;;;29.15;6.15;;;;;;;12.19;88.28;101084.19;6139503;23;20433;-70
2022/10/08 04:53:27;;;;;;;25.10;5.45;;;;;;;12.19;88.39;101089.63;6139402;23;20012;-71
2022/10/08 04:55:54;;;;;;;24.60;5.57;;;;;;;12.29;88.07;101094.91;6165356;23;20013;-71
2022/10/08 04:58:23;;;;;;;30.00;5.55;;;;;;;12.23;88.53;101080.13;6138730;23;20020;-70
2022/10/08 05:00:48;;;;;;;29.77;4.75;;;;;;;12.25;88.76;101092.66;6138953;23;20395;-70
2022/10/08 05:03:14;;;;;;;31.50;5.03;;;;;;;12.41;87.85;101090.03;6139309;23;20043;-70
2022/10/08 05:05:44;;;;;;;31.52;5.70;;;;;;;12.17;88.67;101094.34;6139473;23;20001;-70
2022/10/08 05:08:10;;;;;;;28.25;4.68;;;;;;;12.12;89.30;101083.13;6138718;23;20079;-71
2022/10/08 05:10:36;;;;;;;25.65;5.13;;;;;;;12.17;88.96;101080.78;6139092;23;20440;-70
2022/10/08 05:13:02;;;;;;;24.75;6.38;;;;;;;12.28;88.56;101097.78;6139168;23;20032;-71
2022/10/08 05:15:28;;;;;;;43.15;6.43;;;;;;;12.21;89.14;101087.59;6138711;23;20012;-70
2022/10/08 05:17:54;;;;;;;23.48;5.80;;;;;;;12.07;89.66;101085.50;6138732;23;20005;-71
2022/10/08 05:20:19;;;;;;;28.35;4.88;;;;;;;12.07;89.88;101085.50;6138509;23;20005;-70
2022/10/08 05:22:45;;;;;;;33.13;7.05;;;;;;;12.08;89.59;101086.34;6139382;23;20071;-71
2022/10/08 05:25:10;;;;;;;23.63;5.10;;;;;;;11.99;90.28;101093.56;6138941;23;20000;-70
2022/10/08 05:27:35;;;;;;;26.27;6.15;;;;;;;12.10;89.92;101112.28;6137721;23;20005;-70
2022/10/08 05:30:01;;;;;;;30.90;5.15;;;;;;;12.14;89.82;101105.53;6139041;23;20010;-71
2022/10/08 05:32:27;;;;;;;32.03;5.45;;;;;;;12.09;89.96;101105.16;6138842;23;20332;-70
2022/10/08 05:34:52;;;;;;;27.75;5.80;;;;;;;12.13;90.28;101106.56;6139217;23;20002;-70
2022/10/08 05:37:17;;;;;;;28.33;5.65;;;;;;;12.08;90.46;101114.31;6138697;23;20076;-70
2022/10/08 05:39:43;;;;;;;26.45;5.00;;;;;;;12.19;90.06;101116.78;6138589;23;20001;-70
2022/10/08 05:42:08;;;;;;;31.63;4.78;;;;;;;12.11;90.47;101102.28;6138574;23;20089;-70
2022/10/08 05:44:33;;;;;;;23.25;4.70;;;;;;;12.20;89.83;101123.88;6139057;23;20005;-70
2022/10/08 05:46:59;;;;;;;34.75;6.82;;;;;;;11.99;90.89;101120.72;6139378;23;20012;-71
2022/10/08 05:49:24;;;;;;;22.67;4.60;;;;;;;12.22;90.23;101121.84;6138765;23;20057;-71
2022/10/08 05:51:50;;;;;;;36.97;6.57;;;;;;;12.09;90.44;101126.88;6164993;23;20068;-70
2022/10/08 05:54:16;;;;;;;28.77;5.93;;;;;;;12.03;91.24;101132.94;6165328;23;20028;-71
2022/10/08 05:56:42;;;;;;;25.40;5.72;;;;;;;12.19;90.84;101127.63;6138830;23;20005;-69
2022/10/08 05:59:19;;;;;;;28.65;5.72;;;;;;;12.11;90.97;101135.69;6138528;23;20444;-70
2022/10/08 06:01:44;;;;;;;32.25;5.93;;;;;;;12.05;91.41;101130.91;6138475;23;20002;-71
2022/10/08 06:04:10;;;;;;;28.50;5.68;;;;;;;12.09;91.36;101140.44;6164705;23;20010;-70
2022/10/08 06:06:37;;;;;;;29.48;6.00;;;;;;;12.16;91.02;101144.22;6138469;23;20006;-70
2022/10/08 06:09:04;;;;;;;27.83;5.53;;;;;;;12.00;91.72;101155.00;6164481;23;20020;-69
2022/10/08 06:11:32;;;;;;;31.58;5.53;;;;;;;11.95;91.92;101146.47;6138734;23;20006;-70
2022/10/08 06:13:59;;;;;;;32.30;7.05;;;;;;;12.07;91.55;101145.19;6138716;23;20016;-71
2022/10/08 06:16:25;;;;;;;27.30;5.82;;;;;;;12.08;91.32;101152.31;6138372;23;20005;-71
2022/10/08 06:18:52;;;;;;;26.08;4.65;;;;;;;12.17;91.66;101156.78;6138565;23;19998;-70
2022/10/08 06:21:20;;;;;;;19.70;5.20;;;;;;;12.15;91.23;101147.94;6138584;23;20080;-70
2022/10/08 06:23:48;;;;;;;23.63;5.38;;;;;;;12.14;91.72;101151.69;6164437;23;20003;-71
2022/10/08 06:26:16;;;;;;;36.95;6.15;;;;;;;12.26;91.16;101148.66;6138310;23;19998;-70
2022/10/08 06:28:42;;;;;;;30.00;5.03;;;;;;;12.25;91.53;101153.25;6164429;23;20009;-71
2022/10/08 06:31:07;;;;;;;20.98;5.05;;;;;;;12.26;91.13;101164.94;6164204;23;20361;-69
2022/10/08 06:33:33;;;;;;;17.55;5.82;;;;;;;12.27;91.09;101161.25;6138454;23;20009;-71
2022/10/08 06:36:07;;;;;;;24.88;5.55;;;;;;;12.38;90.93;101174.53;6138153;23;20006;-71
2022/10/08 06:38:32;;;;;;;21.33;5.38;;;;;;;12.21;91.67;101169.03;6164158;23;20009;-71
2022/10/08 06:40:58;;;;;;;33.38;5.25;;;;;;;12.30;91.76;101182.63;6138177;23;20340;-71
2022/10/08 06:43:24;;;;;;;22.45;4.97;;;;;;;12.50;90.91;101179.50;6138625;23;20128;-70
2022/10/08 06:45:49;;;;;;;32.00;6.15;;;;;;;12.58;90.17;101181.38;6164659;23;19994;-70
2022/10/08 06:48:14;;;;;;;27.38;5.43;;;;;;;12.48;90.95;101180.69;6138420;23;20056;-70
2022/10/08 06:50:40;;;;;;;28.30;5.15;;;;;;;12.52;91.13;101181.19;6138265;23;20091;-71
2022/10/08 06:53:08;;;;;;;21.80;5.32;;;;;;;12.50;91.22;101179.50;6137665;23;20072;-71
2022/10/08 06:55:34;;;;;;;28.50;6.18;;;;;;;12.29;92.44;101180.94;6137362;23;20016;-71
2022/10/08 06:58:00;;;;;;;25.40;5.43;;;;;;;12.10;93.15;101182.88;6163803;23;20348;-71
2022/10/08 07:00:26;;;;;;;26.30;5.88;;;;;;;12.28;92.99;101185.50;6138165;23;20004;-71
2022/10/08 07:02:51;;;;;;;24.67;5.05;;;;;;;12.11;93.41;101190.00;6138086;23;20031;-70
2022/10/08 07:05:17;;;;;;;31.33;4.85;;;;;;;12.18;93.77;101207.34;6164625;23;19993;-70
2022/10/08 07:07:42;;;;;;;28.48;6.13;;;;;;;12.21;93.75;101219.75;6164558;23;20028;-70
2022/10/08 07:10:08;;;;;;;23.58;5.43;;;;;;;12.25;93.95;101203.97;6138777;23;20084;-70
2022/10/08 07:12:33;;;;;;;22.90;4.72;;;;;;;12.56;92.04;101202.44;6138667;23;20001;-71
2022/10/08 07:14:59;;;;;;;26.98;4.57;;;;;;;12.49;92.84;101214.97;6138481;23;20033;-69
2022/10/08 07:17:27;;;;;;;20.90;4.70;;;;;;;12.69;91.76;101215.56;6138478;23;20009;-70
2022/10/08 07:19:53;;;;;;;21.42;4.30;;;;;;;12.50;92.62;101222.97;6137484;23;20114;-70
2022/10/08 07:22:19;;;;;;;20.40;5.43;;;;;;;12.39;92.82;101230.56;6137720;23;20033;-71
2022/10/08 07:24:44;;;;;;;37.92;5.70;;;;;;;12.22;94.52;101230.44;6138098;23;20005;-69
2022/10/08 07:27:10;;;;;;;28.25;5.82;;;;;;;12.28;93.94;101233.53;6137807;23;20049;-70
2022/10/08 07:29:36;;;;;;;27.50;5.22;;;;;;;12.43;93.89;101234.63;6130408;23;20032;-70
2022/10/08 07:32:02;;;;;;;26.00;5.15;;;;;;;12.62;93.07;101231.69;6139033;23;20045;-72
2022/10/08 07:34:28;;;;;;;20.05;4.85;;;;;;;12.73;92.69;101233.25;6164267;23;20309;-71
2022/10/08 07:36:53;;;;;;;54.25;5.93;;;;;;;12.65;92.86;101242.22;6138281;23;20080;-72
2022/10/08 07:39:19;;;;;;;21.45;4.57;;;;;;;12.58;93.83;101246.59;6138899;23;20032;-72
2022/10/08 07:41:45;;;;;;;27.25;5.53;;;;;;;12.60;93.55;101236.44;6164992;23;20004;-71
2022/10/08 07:44:11;;;;;;;20.00;5.25;;;;;;;12.54;93.86;101234.34;6139788;23;20493;-71
2022/10/08 07:46:42;;;;;;;18.35;4.50;;;;;;;12.63;94.15;101238.81;6165681;23;19997;-77
2022/10/08 07:49:07;;;;;;;24.63;4.85;;;;;;;12.63;93.78;101255.09;6139834;23;20460;-77
2022/10/08 07:51:33;;;;;;;28.27;4.55;;;;;;;12.48;94.30;101237.72;6139841;23;20005;-77
2022/10/08 07:54:00;;;;;;;25.00;4.90;;;;;;;12.53;93.89;101248.97;6141189;23;20002;-77
2022/10/08 07:56:25;;;;;;;20.05;5.13;;;;;;;12.54;94.33;101261.53;6140109;23;20008;-77
2022/10/08 07:58:51;;;;;;;27.45;4.85;;;;;;;12.53;94.50;101275.28;6166009;23;20005;-77
2022/10/08 08:01:19;;;;;;;28.92;5.10;;;;;;;12.73;93.29;101255.84;6165615;23;20001;-77
2022/10/08 08:03:44;;;;;;;25.75;6.03;;;;;;;12.85;93.16;101270.00;6139537;23;20036;-77
2022/10/08 08:06:14;;;;;;;15.82;4.22;;;;;;;12.82;93.16;101277.63;6138715;23;20001;-77
2022/10/08 08:08:41;;;;;;;28.83;4.60;;;;;;;12.87;92.95;101277.97;6139246;23;20004;-77
2022/10/08 08:11:09;;;;;;;24.52;5.30;;;;;;;12.90;92.87;101283.09;6139447;23;20077;-77
2022/10/08 08:13:37;;;;;;;20.88;4.80;;;;;;;13.20;91.79;101279.84;6138909;23;20077;-76
2022/10/08 08:16:08;;;;;;;18.23;4.03;;;;;;;13.51;90.16;101301.00;6138839;23;20001;-75
2022/10/08 08:18:38;;;;;;;19.10;4.32;;;;;;;13.66;89.12;101285.72;6139771;23;20088;-76
2022/10/08 08:21:15;;;;;;;17.55;4.47;;;;;;;13.71;90.07;101288.78;6138494;23;20082;-75
2022/10/08 08:23:43;;;;;;;17.88;3.80;;;;;;;13.43;89.39;101285.53;6126333;23;20002;-75
2022/10/08 08:26:19;;;;;;;13.15;3.63;;;;;;;13.35;89.58;101309.09;6134232;23;19997;-75
2022/10/08 08:28:53;;;;;;;25.00;3.72;;;;;;;13.47;88.37;101310.50;6133999;23;20002;-76
2022/10/08 08:31:27;;;;;;;16.20;3.38;;;;;;;13.55;87.84;101307.78;6134182;23;20025;-76
2022/10/08 08:33:55;;;;;;;24.52;3.13;;;;;;;13.56;87.45;101317.66;6161651;23;20396;-75
2022/10/08 08:36:26;;;;;;;21.85;4.25;;;;;;;13.56;87.91;101317.66;6136723;23;20001;-75
2022/10/08 08:38:52;;;;;;;13.90;2.90;;;;;;;13.83;87.06;101320.09;6162338;23;20009;-75
2022/10/08 08:41:27;;;;;;;19.13;3.55;;;;;;;13.76;86.89;101308.19;6133565;23;20008;-75
2022/10/08 08:44:00;;;;;;;17.23;3.20;;;;;;;13.79;86.43;101324.16;6133503;23;20343;-75
2022/10/08 08:46:32;;;;;;;23.17;2.97;;;;;;;13.90;85.79;101324.88;6160566;23;20004;-75
2022/10/08 08:49:06;;;;;;;26.63;3.45;;;;;;;14.01;85.34;101317.19;6134526;23;19998;-76
2022/10/08 08:51:33;;;;;;;19.75;3.80;;;;;;;14.09;85.25;101324.53;6160989;23;20010;-75
2022/10/08 08:53:59;;;;;;;23.52;3.67;;;;;;;14.06;84.80;101316.69;6134039;23;20028;-75
2022/10/08 08:56:24;;;;;;;12.70;2.97;;;;;;;14.23;84.92;101326.56;6133812;23;20004;-75
2022/10/08 08:58:59;;;;;;;21.75;4.15;;;;;;;14.37;83.33;101323.16;6132699;23;20009;-76
2022/10/08 09:01:43;;;;;;;21.10;4.15;;;;;;;14.35;83.70;101330.66;6133755;23;20009;-76
2022/10/08 09:04:21;;;;;;;25.00;3.97;;;;;;;14.21;84.46;101334.03;6162613;23;20009;-75
2022/10/08 09:06:51;;;;;;;23.00;3.90;;;;;;;14.38;83.86;101330.28;6136262;23;20603;-75
2022/10/08 09:09:23;;;;;;;24.15;3.47;;;;;;;14.25;84.27;101329.97;6161170;23;19997;-75
2022/10/08 09:11:48;;;;;;;21.85;3.55;;;;;;;14.44;83.48;101327.91;6134599;23;20009;-76
2022/10/08 09:14:43;;;;;;;21.15;3.20;;;;;;;14.53;83.17;101337.78;6135426;23;20486;-76
2022/10/08 09:17:15;;;;;;;18.13;3.40;;;;;;;14.43;83.20;101348.00;6123732;23;20021;-76
2022/10/08 09:19:40;;;;;;;;;;;;;;;14.34;82.92;101350.75;6162249;23;20013;-75
2022/10/08 09:22:27;;;;;;;25.00;3.72;;;;;;;14.18;82.51;101345.28;6135731;23;19904;-75
2022/10/08 09:24:57;;;;;;;13.95;3.33;;;;;;;14.12;81.75;101345.97;6134569;23;20016;-75
2022/10/08 09:27:23;;;;;;;32.23;3.60;;;;;;;14.30;81.14;101348.53;6135017;23;20002;-75
2022/10/08 09:29:48;;;;;;;18.55;3.63;;;;;;;14.18;80.17;101339.84;6134066;23;20268;-76
2022/10/08 09:32:17;;;;;;;15.27;2.38;;;;;;;14.32;78.85;101350.03;6159704;23;20010;-75
2022/10/08 09:34:44;;;;;;;21.23;3.70;;;;;;;14.43;77.25;101348.00;6161623;23;20017;-76
2022/10/08 09:37:24;;;;;;;11.38;2.40;;;;;;;14.55;76.29;101352.97;6160113;23;20032;-75
2022/10/08 09:40:12;;;;;;;11.98;2.75;;;;;;;14.69;76.76;101358.75;6161154;23;20008;-75
2022/10/08 09:42:37;;;;;;;21.63;3.67;;;;;;;14.82;75.14;101354.44;6161792;23;20002;-75
2022/10/08 09:45:30;;;;;;;12.32;2.60;;;;;;;15.05;74.98;101359.13;6161908;23;20067;-76
2022/10/08 09:48:27;;;;;;;15.55;2.60;;;;;;;15.25;73.76;101354.13;6136128;23;20009;-76
2022/10/08 09:51:04;;;;;;;16.08;2.47;;;;;;;15.59;72.94;101356.53;6135750;23;20013;-76
2022/10/08 09:53:39;;;;;;;12.10;2.55;;;;;;;15.13;73.43;101368.16;6136066;23;20013;-76
2022/10/08 09:56:07;;;;;;;15.55;2.67;;;;;;;15.36;72.86;101370.09;6134799;23;20005;-76
2022/10/08 09:58:39;;;;;;;18.38;2.25;;;;;;;16.17;71.02;101360.56;6161377;23;20001;-76
2022/10/08 10:01:15;;;;;;;15.30;2.53;;;;;;;15.96;71.16;101367.56;6163067;23;20008;-76
2022/10/08 10:03:49;;;;;;;15.43;2.53;;;;;;;15.51;71.42;101364.75;6137152;23;20095;-75
2022/10/08 10:06:23;;;;;;;12.20;2.05;;;;;;;14.84;72.95;101374.19;6136467;23;20032;-76
2022/10/08 10:09:36;;;;;;;18.42;2.95;;;;;;;14.87;70.12;101373.88;6136644;23;20076;-75
2022/10/08 10:12:23;;;;;;;20.35;2.30;;;;;;;15.34;69.39;101370.28;6123487;23;20045;-76
2022/10/08 10:15:16;;;;;;;13.15;2.10;;;;;;;15.26;68.25;101367.59;6162523;23;20064;-76
2022/10/08 10:17:48;;;;;;;8.73;2.35;;;;;;;15.91;67.81;101361.81;6148282;23;20040;-74
2022/10/08 10:20:31;;;;;;;9.55;1.85;;;;;;;16.57;65.10;101372.22;6161082;23;20001;-74
2022/10/08 10:23:14;;;;;;;12.27;1.92;;;;;;;16.42;65.13;101370.28;6135454;23;20012;-74
2022/10/08 10:25:54;;;;;;;5.53;1.60;;;;;;;16.05;65.35;101373.00;6135762;23;20005;-74
2022/10/08 10:28:39;;;;;;;10.40;1.65;;;;;;;16.31;64.91;101373.47;6135095;23;20005;-74
2022/10/08 10:31:18;;;;;;;12.20;2.05;;;;;;;16.14;64.21;101386.38;6135132;23;20001;-75
2022/10/08 10:33:59;;;;;;;6.63;1.92;;;;;;;15.62;65.19;101388.94;6135260;23;20008;-75
2022/10/08 10:36:29;;;;;;;7.75;1.92;;;;;;;15.35;66.15;101377.44;6134242;23;20010;-75
2022/10/08 10:39:11;;;;;;;11.37;2.00;;;;;;;15.55;65.96;101379.75;6134356;23;20001;-74
2022/10/08 10:41:49;;;;;;;;;;;;;;;15.78;65.68;101372.50;6136123;23;20236;-75
2022/10/08 10:44:25;;;;;;;10.60;1.88;;;;;;;16.01;64.60;101377.94;6136306;23;19904;-75
2022/10/08 10:46:55;;;;;;;8.80;2.03;;;;;;;16.08;65.30;101380.81;6162092;23;20381;-75
2022/10/08 10:49:35;;;;;;;8.45;1.85;;;;;;;16.07;64.52;101373.66;6135640;23;20041;-75
2022/10/08 10:52:22;;;;;;;12.10;1.65;;;;;;;16.14;64.48;101382.81;6136043;23;20044;-75
2022/10/08 10:55:18;;;;;;;7.10;1.70;;;;;;;16.51;63.44;101380.13;6161778;23;20444;-74
2022/10/08 10:58:05;;;;;;;12.57;1.95;;;;;;;16.38;64.31;101382.63;6161645;23;20002;-75
2022/10/08 11:00:57;;;;;;;12.50;1.90;;;;;;;15.95;64.64;101395.91;6135572;23;20006;-75
2022/10/08 11:03:34;;;;;;;8.93;1.80;;;;;;;15.53;65.53;101395.47;6161203;23;20013;-75
2022/10/08 11:06:08;;;;;;;8.00;1.65;;;;;;;15.75;65.04;101394.66;6160612;23;20017;-75
2022/10/08 11:08:40;;;;;;;15.63;2.70;;;;;;;15.89;64.56;101399.34;6158395;23;20041;-75
2022/10/08 11:11:35;;;;;;;8.27;1.60;;;;;;;15.69;65.70;101390.78;6160791;23;20041;-75
2022/10/08 11:14:22;;;;;;;5.75;1.70;;;;;;;15.67;65.68;101384.66;6130119;23;20088;-75
2022/10/08 11:17:00;;;;;;;5.97;1.55;;;;;;;15.82;65.23;101383.88;6154190;23;20075;-75
2022/10/08 11:19:56;;;;;;;12.13;2.00;;;;;;;15.46;66.58;101368.88;6132133;23;20439;-75
2022/10/08 11:22:36;;;;;;;10.60;1.98;;;;;;;15.37;66.89;101391.75;6132553;23;20005;-75
2022/10/08 11:25:22;;;;;;;7.60;1.67;;;;;;;15.43;66.80;101406.56;6156379;23;19993;-75
2022/10/08 11:28:25;;;;;;;25.65;2.72;;;;;;;14.05;81.75;101456.59;6132190;23;20459;-78
2022/10/08 11:31:05;;;;;;;42.17;4.00;;;;;;;11.93;96.52;101471.41;6156640;23;20032;-74
2022/10/08 11:33:32;;;;;;;12.32;2.47;;;;;;;11.04;94.01;101471.94;6157272;23;20005;-74
2022/10/08 11:36:06;;;;;;;17.58;2.65;;;;;;;11.28;98.79;101467.84;6130540;23;20003;-71
2022/10/08 11:38:46;;;;;;;15.82;1.80;;;;;;;11.17;97.59;101465.34;6129267;23;20087;-72
2022/10/08 11:41:20;;;;;;;7.50;1.77;;;;;;;11.28;98.45;101473.25;6129772;23;20005;-72
2022/10/08 11:44:07;;;;;;;4.30;0.88;;;;;;;11.33;97.02;101460.13;6157489;23;20092;-72